createdAt,value
2016-12-26T00:00:22.407Z,0
2016-12-26T00:01:02.967Z,0
2016-12-26T00:01:43.500Z,0
2016-12-26T00:02:24.025Z,0
2016-12-26T00:03:04.542Z,0
2016-12-26T00:03:45.072Z,0
2016-12-26T00:04:25.607Z,0
2016-12-26T00:05:06.135Z,0
2016-12-26T00:05:46.673Z,0
2016-12-26T00:06:27.212Z,0
2016-12-26T00:07:07.744Z,0
2016-12-26T00:07:48.275Z,0
2016-12-26T00:08:28.843Z,0
2016-12-26T00:09:09.395Z,0
2016-12-26T00:09:49.937Z,0
2016-12-26T00:10:30.469Z,0
2016-12-26T00:11:10.978Z,0
2016-12-26T00:11:51.518Z,0
2016-12-26T00:12:32.054Z,0
2016-12-26T00:13:12.582Z,0
2016-12-26T00:13:53.133Z,0
2016-12-26T00:14:33.662Z,0
2016-12-26T00:15:14.237Z,0
2016-12-26T00:15:54.955Z,0
2016-12-26T00:16:35.600Z,0
2016-12-26T00:17:16.145Z,0
2016-12-26T00:17:56.675Z,0
2016-12-26T00:18:37.246Z,0
2016-12-26T00:19:17.774Z,0
2016-12-26T00:19:58.305Z,0
2016-12-26T00:20:38.867Z,0
2016-12-26T00:21:19.417Z,0
2016-12-26T00:21:59.954Z,0
2016-12-26T00:22:40.507Z,0
2016-12-26T00:23:21.089Z,0
2016-12-26T00:24:01.660Z,0
2016-12-26T00:24:42.169Z,0
2016-12-26T00:25:22.696Z,0
2016-12-26T00:26:03.225Z,0
2016-12-26T00:26:43.764Z,0
2016-12-26T00:27:24.296Z,0
2016-12-26T00:28:04.836Z,0
2016-12-26T00:28:45.361Z,0
2016-12-26T00:29:25.886Z,0
2016-12-26T00:30:06.426Z,0
2016-12-26T00:30:46.968Z,0
2016-12-26T00:31:27.491Z,0
2016-12-26T00:32:08.058Z,0
2016-12-26T00:32:48.584Z,0
2016-12-26T00:33:29.116Z,0
2016-12-26T00:34:09.641Z,0
2016-12-26T00:34:50.170Z,0
2016-12-26T00:35:30.696Z,0
2016-12-26T00:36:11.220Z,0
2016-12-26T00:36:51.745Z,0
2016-12-26T00:37:32.283Z,0
2016-12-26T00:38:12.813Z,0
2016-12-26T00:38:53.349Z,0
2016-12-26T00:39:33.878Z,0
2016-12-26T00:40:14.392Z,0
2016-12-26T00:40:54.918Z,0
2016-12-26T00:41:35.543Z,0
2016-12-26T00:42:16.067Z,0
2016-12-26T00:42:56.698Z,0
2016-12-26T00:43:37.223Z,0
2016-12-26T00:44:17.750Z,0
2016-12-26T00:44:58.272Z,0
2016-12-26T00:45:38.835Z,0
2016-12-26T00:46:19.400Z,0
2016-12-26T00:46:59.928Z,0
2016-12-26T00:47:40.473Z,0
2016-12-26T00:48:20.997Z,0
2016-12-26T00:49:01.525Z,0
2016-12-26T00:49:42.076Z,0
2016-12-26T00:50:22.611Z,0
2016-12-26T00:51:03.136Z,0
2016-12-26T00:51:43.670Z,0
2016-12-26T00:52:24.193Z,0
2016-12-26T00:53:04.842Z,0
2016-12-26T00:53:45.467Z,0
2016-12-26T00:54:25.984Z,0
2016-12-26T00:55:06.528Z,0
2016-12-26T00:55:47.063Z,0
2016-12-26T00:56:27.593Z,0
2016-12-26T00:57:08.128Z,0
2016-12-26T00:57:48.656Z,0
2016-12-26T00:58:29.194Z,0
2016-12-26T00:59:09.719Z,0
2016-12-26T00:59:50.251Z,0
2016-12-26T01:00:30.790Z,0
2016-12-26T01:01:11.330Z,0
2016-12-26T01:01:51.868Z,0
2016-12-26T01:02:32.407Z,0
2016-12-26T01:03:12.945Z,0
2016-12-26T01:03:53.471Z,0
2016-12-26T01:04:34.022Z,0
2016-12-26T01:05:14.546Z,0
2016-12-26T01:05:55.086Z,0
2016-12-26T01:06:35.611Z,0
2016-12-26T01:07:16.138Z,0
2016-12-26T01:07:56.663Z,0
2016-12-26T01:08:37.205Z,0
2016-12-26T01:09:17.728Z,0
2016-12-26T01:09:58.264Z,0
2016-12-26T01:10:38.795Z,0
2016-12-26T01:11:19.326Z,0
2016-12-26T01:11:59.857Z,0
2016-12-26T01:12:40.383Z,0
2016-12-26T01:13:20.919Z,0
2016-12-26T01:14:01.449Z,0
2016-12-26T01:14:41.971Z,0
2016-12-26T01:15:22.495Z,0
2016-12-26T01:16:03.038Z,0
2016-12-26T01:16:43.551Z,0
2016-12-26T01:17:24.088Z,0
2016-12-26T01:18:04.616Z,0
2016-12-26T01:18:45.141Z,0
2016-12-26T01:19:25.666Z,0
2016-12-26T01:20:06.184Z,0
2016-12-26T01:20:46.715Z,0
2016-12-26T01:21:27.230Z,0
2016-12-26T01:22:07.751Z,0
2016-12-26T01:22:48.282Z,0
2016-12-26T01:23:28.810Z,0
2016-12-26T01:24:09.339Z,0
2016-12-26T01:24:49.863Z,0
2016-12-26T01:25:30.403Z,0
2016-12-26T01:26:10.934Z,0
2016-12-26T01:26:51.450Z,0
2016-12-26T01:27:31.997Z,0
2016-12-26T01:28:12.524Z,0
2016-12-26T01:28:53.065Z,0
2016-12-26T01:29:33.591Z,0
2016-12-26T01:30:14.117Z,0
2016-12-26T01:30:54.656Z,0
2016-12-26T01:31:35.173Z,0
2016-12-26T01:32:15.716Z,0
2016-12-26T01:32:56.243Z,0
2016-12-26T01:33:36.781Z,0
2016-12-26T01:34:17.317Z,0
2016-12-26T01:34:57.847Z,0
2016-12-26T01:35:38.387Z,0
2016-12-26T01:36:18.913Z,0
2016-12-26T01:36:59.438Z,0
2016-12-26T01:37:39.987Z,0
2016-12-26T01:38:20.523Z,0
2016-12-26T01:39:01.039Z,0
2016-12-26T01:39:41.572Z,0
2016-12-26T01:40:22.097Z,0
2016-12-26T01:41:02.636Z,0
2016-12-26T01:41:43.167Z,0
2016-12-26T01:42:23.687Z,0
2016-12-26T01:43:04.215Z,0
2016-12-26T01:43:44.756Z,0
2016-12-26T01:44:25.281Z,0
2016-12-26T01:45:05.816Z,0
2016-12-26T01:45:46.342Z,0
2016-12-26T01:46:26.873Z,0
2016-12-26T01:47:07.402Z,0
2016-12-26T01:47:47.935Z,0
2016-12-26T01:48:28.461Z,0
2016-12-26T01:49:08.979Z,0
2016-12-26T01:49:49.498Z,0
2016-12-26T01:50:30.028Z,0
2016-12-26T01:51:10.558Z,0
2016-12-26T01:51:51.091Z,0
2016-12-26T01:52:31.613Z,0
2016-12-26T01:53:12.154Z,0
2016-12-26T01:53:52.677Z,0
2016-12-26T01:54:33.205Z,0
2016-12-26T01:55:13.736Z,0
2016-12-26T01:55:54.271Z,0
2016-12-26T01:56:34.790Z,0
2016-12-26T01:57:15.322Z,0
2016-12-26T01:57:55.847Z,0
2016-12-26T01:58:36.367Z,0
2016-12-26T01:59:16.898Z,0
2016-12-26T01:59:57.427Z,0
2016-12-26T02:00:37.962Z,0
2016-12-26T02:01:18.499Z,0
2016-12-26T02:01:59.037Z,0
2016-12-26T02:02:39.570Z,0
2016-12-26T02:03:20.094Z,0
2016-12-26T02:04:00.614Z,0
2016-12-26T02:04:41.139Z,0
2016-12-26T02:05:21.685Z,0
2016-12-26T02:06:02.208Z,0
2016-12-26T02:06:42.733Z,0
2016-12-26T02:07:23.256Z,0
2016-12-26T02:08:03.788Z,0
2016-12-26T02:08:44.321Z,0
2016-12-26T02:09:24.839Z,0
2016-12-26T02:10:05.366Z,0
2016-12-26T02:10:45.900Z,0
2016-12-26T02:11:26.436Z,0
2016-12-26T02:12:06.963Z,0
2016-12-26T02:12:47.465Z,0
2016-12-26T02:13:27.987Z,0
2016-12-26T02:14:08.519Z,0
2016-12-26T02:14:49.046Z,0
2016-12-26T02:15:29.578Z,0
2016-12-26T02:16:10.111Z,0
2016-12-26T02:16:50.621Z,0
2016-12-26T02:17:31.157Z,0
2016-12-26T02:18:11.689Z,0
2016-12-26T02:18:52.211Z,0
2016-12-26T02:19:32.740Z,0
2016-12-26T02:20:13.266Z,0
2016-12-26T02:20:53.796Z,0
2016-12-26T02:21:34.329Z,0
2016-12-26T02:22:14.852Z,0
2016-12-26T02:22:55.379Z,0
2016-12-26T02:23:35.923Z,0
2016-12-26T02:24:16.447Z,0
2016-12-26T02:24:56.957Z,0
2016-12-26T02:25:37.477Z,0
2016-12-26T02:26:18.010Z,0
2016-12-26T02:26:58.543Z,0
2016-12-26T02:27:39.079Z,0
2016-12-26T02:28:19.609Z,0
2016-12-26T02:29:00.145Z,0
2016-12-26T02:29:40.676Z,0
2016-12-26T02:30:21.206Z,0
2016-12-26T02:31:01.738Z,0
2016-12-26T02:31:42.281Z,0
2016-12-26T02:32:22.831Z,0
2016-12-26T02:33:03.360Z,0
2016-12-26T02:33:43.889Z,0
2016-12-26T02:34:24.424Z,0
2016-12-26T02:35:04.944Z,0
2016-12-26T02:35:45.482Z,0
2016-12-26T02:36:26.022Z,0
2016-12-26T02:37:06.559Z,0
2016-12-26T02:37:47.085Z,0
2016-12-26T02:38:27.620Z,0
2016-12-26T02:39:08.148Z,0
2016-12-26T02:39:48.678Z,0
2016-12-26T02:40:29.216Z,0
2016-12-26T02:41:09.738Z,0
2016-12-26T02:41:50.266Z,0
2016-12-26T02:42:30.795Z,0
2016-12-26T02:43:11.319Z,0
2016-12-26T02:43:51.846Z,0
2016-12-26T02:44:32.377Z,0
2016-12-26T02:45:12.909Z,0
2016-12-26T02:45:53.426Z,0
2016-12-26T02:46:33.958Z,0
2016-12-26T02:47:14.484Z,0
2016-12-26T02:47:55.017Z,0
2016-12-26T02:48:35.553Z,0
2016-12-26T02:49:16.088Z,0
2016-12-26T02:49:56.616Z,0
2016-12-26T02:50:37.142Z,0
2016-12-26T02:51:17.679Z,0
2016-12-26T02:51:58.212Z,0
2016-12-26T02:52:38.732Z,0
2016-12-26T02:53:19.269Z,0
2016-12-26T02:53:59.785Z,0
2016-12-26T02:54:40.300Z,0
2016-12-26T02:55:20.837Z,0
2016-12-26T02:56:01.379Z,0
2016-12-26T02:56:41.906Z,0
2016-12-26T02:57:22.433Z,0
2016-12-26T02:58:02.956Z,0
2016-12-26T02:58:43.484Z,0
2016-12-26T02:59:24.016Z,0
2016-12-26T03:00:04.552Z,0
2016-12-26T03:00:45.075Z,0
2016-12-26T03:01:25.599Z,0
2016-12-26T03:02:06.125Z,0
2016-12-26T03:02:46.653Z,0
2016-12-26T03:03:27.188Z,0
2016-12-26T03:04:07.730Z,0
2016-12-26T03:04:48.252Z,0
2016-12-26T03:05:28.786Z,0
2016-12-26T03:06:09.320Z,0
2016-12-26T03:06:49.850Z,0
2016-12-26T03:07:30.416Z,0
2016-12-26T03:08:10.979Z,0
2016-12-26T03:08:51.551Z,0
2016-12-26T03:09:32.121Z,0
2016-12-26T03:10:12.705Z,0
2016-12-26T03:10:53.291Z,0
2016-12-26T03:11:33.875Z,0
2016-12-26T03:12:14.447Z,0
2016-12-26T03:12:55.046Z,0
2016-12-26T03:13:35.604Z,0
2016-12-26T03:14:16.175Z,0
2016-12-26T03:14:56.745Z,0
2016-12-26T03:15:37.314Z,0
2016-12-26T03:16:17.885Z,0
2016-12-26T03:16:58.456Z,0
2016-12-26T03:17:39.022Z,0
2016-12-26T03:18:19.597Z,0
2016-12-26T03:19:00.170Z,0
2016-12-26T03:19:40.743Z,0
2016-12-26T03:20:21.321Z,0
2016-12-26T03:21:01.905Z,0
2016-12-26T03:21:42.483Z,0
2016-12-26T03:22:23.059Z,0
2016-12-26T03:23:03.634Z,0
2016-12-26T03:23:44.214Z,0
2016-12-26T03:24:24.798Z,0
2016-12-26T03:25:05.377Z,0
2016-12-26T03:25:45.954Z,0
2016-12-26T03:26:26.530Z,0
2016-12-26T03:27:07.107Z,0
2016-12-26T03:27:47.693Z,0
2016-12-26T03:28:28.267Z,0
2016-12-26T03:29:08.853Z,0
2016-12-26T03:29:49.435Z,0
2016-12-26T03:30:30.015Z,0
2016-12-26T03:31:10.588Z,0
2016-12-26T03:31:51.111Z,0
2016-12-26T03:32:31.648Z,0
2016-12-26T03:33:12.177Z,0
2016-12-26T03:33:52.712Z,0
2016-12-26T03:34:33.236Z,0
2016-12-26T03:35:13.763Z,0
2016-12-26T03:35:54.303Z,0
2016-12-26T03:36:34.836Z,0
2016-12-26T03:37:15.360Z,0
2016-12-26T03:37:55.891Z,0
2016-12-26T03:38:36.430Z,0
2016-12-26T03:39:16.957Z,0
2016-12-26T03:39:57.485Z,0
2016-12-26T03:40:38.014Z,0
2016-12-26T03:41:18.540Z,0
2016-12-26T03:41:59.077Z,0
2016-12-26T03:42:39.607Z,0
2016-12-26T03:43:20.189Z,0
2016-12-26T03:44:00.762Z,0
2016-12-26T03:44:41.339Z,0
2016-12-26T03:45:21.904Z,0
2016-12-26T03:46:02.485Z,0
2016-12-26T03:46:43.067Z,0
2016-12-26T03:47:23.650Z,0
2016-12-26T03:48:04.226Z,0
2016-12-26T03:48:44.804Z,0
2016-12-26T03:49:25.378Z,0
2016-12-26T03:50:05.964Z,0
2016-12-26T03:50:46.543Z,0
2016-12-26T03:51:27.125Z,0
2016-12-26T03:52:07.644Z,0
2016-12-26T03:52:48.171Z,0
2016-12-26T03:53:28.714Z,0
2016-12-26T03:54:09.287Z,0
2016-12-26T03:54:49.861Z,0
2016-12-26T03:55:30.433Z,0
2016-12-26T03:56:11.015Z,0
2016-12-26T03:56:51.605Z,0
2016-12-26T03:57:32.174Z,0
2016-12-26T03:58:12.757Z,0
2016-12-26T03:58:53.335Z,0
2016-12-26T03:59:33.921Z,0
2016-12-26T04:00:14.492Z,0
2016-12-26T04:00:55.068Z,0
2016-12-26T04:01:35.644Z,0
2016-12-26T04:02:16.215Z,0
2016-12-26T04:02:56.789Z,0
2016-12-26T04:03:37.367Z,0
2016-12-26T04:04:17.945Z,0
2016-12-26T04:04:58.531Z,0
2016-12-26T04:05:39.109Z,0
2016-12-26T04:06:19.680Z,0
2016-12-26T04:07:00.261Z,0
2016-12-26T04:07:40.842Z,0
2016-12-26T04:08:21.423Z,0
2016-12-26T04:09:02.000Z,0
2016-12-26T04:09:42.578Z,0
2016-12-26T04:10:23.153Z,0
2016-12-26T04:11:03.738Z,0
2016-12-26T04:11:44.311Z,0
2016-12-26T04:12:24.890Z,0
2016-12-26T04:13:05.472Z,0
2016-12-26T04:13:46.048Z,0
2016-12-26T04:14:26.628Z,0
2016-12-26T04:15:07.213Z,0
2016-12-26T04:15:47.795Z,0
2016-12-26T04:16:28.374Z,0
2016-12-26T04:17:08.946Z,0
2016-12-26T04:17:49.525Z,0
2016-12-26T04:18:30.099Z,0
2016-12-26T04:19:10.678Z,0
2016-12-26T04:19:51.244Z,0
2016-12-26T04:20:31.816Z,0
2016-12-26T04:21:12.386Z,0
2016-12-26T04:21:52.966Z,0
2016-12-26T04:22:33.541Z,0
2016-12-26T04:23:14.122Z,0
2016-12-26T04:23:54.705Z,0
2016-12-26T04:24:35.275Z,0
2016-12-26T04:25:15.848Z,0
2016-12-26T04:25:56.427Z,0
2016-12-26T04:26:37.013Z,0
2016-12-26T04:27:17.586Z,0
2016-12-26T04:27:58.164Z,0
2016-12-26T04:28:38.741Z,0
2016-12-26T04:29:19.311Z,0
2016-12-26T04:29:59.895Z,0
2016-12-26T04:30:40.466Z,0
2016-12-26T04:31:21.045Z,0
2016-12-26T04:32:01.625Z,0
2016-12-26T04:32:42.209Z,0
2016-12-26T04:33:22.787Z,0
2016-12-26T04:34:03.367Z,0
2016-12-26T04:34:43.947Z,0
2016-12-26T04:35:24.528Z,0
2016-12-26T04:36:05.102Z,0
2016-12-26T04:36:45.681Z,0
2016-12-26T04:37:26.255Z,0
2016-12-26T04:38:06.838Z,0
2016-12-26T04:38:47.418Z,0
2016-12-26T04:39:27.985Z,0
2016-12-26T04:40:08.560Z,0
2016-12-26T04:40:49.141Z,0
2016-12-26T04:41:29.726Z,0
2016-12-26T04:42:10.306Z,0
2016-12-26T04:42:50.884Z,0
2016-12-26T04:43:31.464Z,0
2016-12-26T04:44:12.044Z,0
2016-12-26T04:44:52.632Z,0
2016-12-26T04:45:33.212Z,0
2016-12-26T04:46:13.792Z,0
2016-12-26T04:46:54.373Z,0
2016-12-26T04:47:34.950Z,0
2016-12-26T04:48:15.527Z,0
2016-12-26T04:48:56.102Z,0
2016-12-26T04:49:36.629Z,0
2016-12-26T04:50:17.160Z,0
2016-12-26T04:50:57.688Z,0
2016-12-26T04:51:38.240Z,0
2016-12-26T04:52:18.754Z,0
2016-12-26T04:52:59.286Z,0
2016-12-26T04:53:39.812Z,0
2016-12-26T04:54:20.340Z,0
2016-12-26T04:55:00.870Z,0
2016-12-26T04:55:41.403Z,0
2016-12-26T04:56:21.935Z,0
2016-12-26T04:57:02.466Z,0
2016-12-26T04:57:42.994Z,0
2016-12-26T04:58:23.518Z,0
2016-12-26T04:59:04.041Z,0
2016-12-26T04:59:44.576Z,0
2016-12-26T05:00:25.107Z,0
2016-12-26T05:01:05.641Z,0
2016-12-26T05:01:46.173Z,0
2016-12-26T05:02:26.708Z,0
2016-12-26T05:03:07.234Z,0
2016-12-26T05:03:47.763Z,0
2016-12-26T05:04:28.301Z,0
2016-12-26T05:05:08.819Z,0
2016-12-26T05:05:49.352Z,0
2016-12-26T05:06:29.889Z,0
2016-12-26T05:07:10.424Z,0
2016-12-26T05:07:50.953Z,0
2016-12-26T05:08:31.489Z,0
2016-12-26T05:09:12.024Z,0
2016-12-26T05:09:52.548Z,0
2016-12-26T05:10:33.071Z,0
2016-12-26T05:11:13.592Z,0
2016-12-26T05:11:54.124Z,0
2016-12-26T05:12:34.654Z,0
2016-12-26T05:13:15.189Z,0
2016-12-26T05:13:55.715Z,0
2016-12-26T05:14:36.239Z,0
2016-12-26T05:15:16.770Z,0
2016-12-26T05:15:57.299Z,0
2016-12-26T05:16:37.816Z,0
2016-12-26T05:17:18.354Z,0
2016-12-26T05:17:58.879Z,0
2016-12-26T05:18:39.404Z,0
2016-12-26T05:19:19.930Z,0
2016-12-26T05:20:00.463Z,0
2016-12-26T05:20:40.998Z,0
2016-12-26T05:21:21.532Z,0
2016-12-26T05:22:02.065Z,0
2016-12-26T05:22:42.598Z,0
2016-12-26T05:23:23.138Z,0
2016-12-26T05:24:03.664Z,0
2016-12-26T05:24:44.189Z,0
2016-12-26T05:25:24.715Z,0
2016-12-26T05:26:05.241Z,0
2016-12-26T05:26:45.771Z,0
2016-12-26T05:27:26.311Z,0
2016-12-26T05:28:06.837Z,0
2016-12-26T05:28:47.365Z,0
2016-12-26T05:29:27.892Z,0
2016-12-26T05:30:08.428Z,0
2016-12-26T05:30:48.958Z,0
2016-12-26T05:31:29.489Z,0
2016-12-26T05:32:10.015Z,0
2016-12-26T05:32:50.548Z,0
2016-12-26T05:33:31.088Z,0
2016-12-26T05:34:11.615Z,0
2016-12-26T05:34:52.140Z,0
2016-12-26T05:35:32.677Z,0
2016-12-26T05:36:13.203Z,0
2016-12-26T05:36:53.724Z,0
2016-12-26T05:37:34.253Z,0
2016-12-26T05:38:14.780Z,0
2016-12-26T05:38:55.321Z,0
2016-12-26T05:39:35.846Z,0
2016-12-26T05:40:16.375Z,0
2016-12-26T05:40:56.939Z,0
2016-12-26T05:41:37.462Z,0
2016-12-26T05:42:17.991Z,0
2016-12-26T05:42:58.523Z,0
2016-12-26T05:43:39.042Z,0
2016-12-26T05:44:19.581Z,0
2016-12-26T05:45:00.109Z,0
2016-12-26T05:45:40.641Z,0
2016-12-26T05:46:21.176Z,0
2016-12-26T05:47:01.706Z,0
2016-12-26T05:47:42.241Z,0
2016-12-26T05:48:22.772Z,0
2016-12-26T05:49:03.307Z,0
2016-12-26T05:49:43.836Z,0
2016-12-26T05:50:24.360Z,0
2016-12-26T05:51:04.939Z,0
2016-12-26T05:51:45.466Z,0
2016-12-26T05:52:25.998Z,0
2016-12-26T05:53:06.528Z,0
2016-12-26T05:53:47.057Z,0
2016-12-26T05:54:27.582Z,0
2016-12-26T05:55:08.125Z,0
2016-12-26T05:55:48.641Z,0
2016-12-26T05:56:29.187Z,0
2016-12-26T05:57:09.695Z,0
2016-12-26T05:57:50.227Z,0
2016-12-26T05:58:30.755Z,0
2016-12-26T05:59:11.289Z,0
2016-12-26T05:59:51.817Z,0
2016-12-26T06:00:32.342Z,0
2016-12-26T06:01:12.880Z,0
2016-12-26T06:01:53.415Z,0
2016-12-26T06:02:33.933Z,0
2016-12-26T06:03:14.462Z,0
2016-12-26T06:03:54.999Z,0
2016-12-26T06:04:35.538Z,0
2016-12-26T06:05:16.066Z,0
2016-12-26T06:05:56.595Z,0
2016-12-26T06:06:37.115Z,0
2016-12-26T06:07:17.640Z,0
2016-12-26T06:07:58.192Z,0
2016-12-26T06:08:38.742Z,0
2016-12-26T06:09:19.259Z,0
2016-12-26T06:09:59.792Z,0
2016-12-26T06:10:40.323Z,0
2016-12-26T06:11:20.850Z,0
2016-12-26T06:12:01.378Z,0
2016-12-26T06:12:41.910Z,0
2016-12-26T06:13:22.438Z,0
2016-12-26T06:14:02.963Z,0
2016-12-26T06:14:43.495Z,0
2016-12-26T06:15:24.032Z,0
2016-12-26T06:16:04.558Z,0
2016-12-26T06:16:45.088Z,0
2016-12-26T06:17:25.615Z,0
2016-12-26T06:18:06.170Z,0
2016-12-26T06:18:46.687Z,0
2016-12-26T06:19:27.209Z,0
2016-12-26T06:20:07.738Z,0
2016-12-26T06:20:48.263Z,0
2016-12-26T06:21:28.789Z,0
2016-12-26T06:22:09.314Z,0
2016-12-26T06:22:49.848Z,0
2016-12-26T06:23:30.381Z,0
2016-12-26T06:24:10.909Z,0
2016-12-26T06:24:51.434Z,0
2016-12-26T06:25:31.969Z,0
2016-12-26T06:26:12.499Z,0
2016-12-26T06:26:53.037Z,0
2016-12-26T06:27:33.562Z,0
2016-12-26T06:28:14.102Z,0
2016-12-26T06:28:54.629Z,0
2016-12-26T06:29:35.164Z,0
2016-12-26T06:30:15.698Z,0
2016-12-26T06:30:56.228Z,0
2016-12-26T06:31:36.752Z,0
2016-12-26T06:32:17.290Z,0
2016-12-26T06:32:57.820Z,0
2016-12-26T06:33:38.353Z,0
2016-12-26T06:34:18.897Z,0
2016-12-26T06:34:59.429Z,0
2016-12-26T06:35:39.974Z,0
2016-12-26T06:36:20.504Z,0
2016-12-26T06:37:01.034Z,0
2016-12-26T06:37:41.576Z,0
2016-12-26T06:38:22.107Z,0
2016-12-26T06:39:02.639Z,0
2016-12-26T06:39:43.174Z,0
2016-12-26T06:40:23.703Z,0
2016-12-26T06:41:04.235Z,0
2016-12-26T06:41:44.762Z,0
2016-12-26T06:42:25.301Z,0
2016-12-26T06:43:05.826Z,0
2016-12-26T06:43:46.360Z,0
2016-12-26T06:44:26.895Z,0
2016-12-26T06:45:07.427Z,0
2016-12-26T06:45:47.951Z,0
2016-12-26T06:46:28.481Z,0
2016-12-26T06:47:09.010Z,0
2016-12-26T06:47:49.552Z,0
2016-12-26T06:48:30.079Z,0
2016-12-26T06:49:10.605Z,0
2016-12-26T06:49:51.139Z,0
2016-12-26T06:50:31.673Z,0
2016-12-26T06:51:12.208Z,0
2016-12-26T06:51:52.739Z,0
2016-12-26T06:52:33.275Z,0
2016-12-26T06:53:13.795Z,0
2016-12-26T06:53:54.337Z,0
2016-12-26T06:54:34.860Z,0
2016-12-26T06:55:15.386Z,0
2016-12-26T06:55:55.911Z,0
2016-12-26T06:56:36.443Z,0
2016-12-26T06:57:16.976Z,0
2016-12-26T06:57:57.509Z,0
2016-12-26T06:58:38.039Z,0
2016-12-26T06:59:18.570Z,0
2016-12-26T06:59:59.101Z,0
2016-12-26T07:00:39.623Z,0
2016-12-26T07:01:20.157Z,0
2016-12-26T07:02:00.683Z,0
2016-12-26T07:02:41.224Z,0
2016-12-26T07:03:21.754Z,0
2016-12-26T07:04:02.276Z,0
2016-12-26T07:04:42.806Z,0
2016-12-26T07:05:23.343Z,0
2016-12-26T07:06:03.867Z,0
2016-12-26T07:06:44.405Z,0
2016-12-26T07:07:24.938Z,4
2016-12-26T07:08:05.462Z,4
2016-12-26T07:08:45.985Z,0
2016-12-26T07:09:26.509Z,0
2016-12-26T07:10:07.039Z,4
2016-12-26T07:10:47.577Z,4
2016-12-26T07:11:28.106Z,4
2016-12-26T07:12:08.635Z,4
2016-12-26T07:12:49.159Z,4
2016-12-26T07:13:29.687Z,4
2016-12-26T07:14:10.220Z,4
2016-12-26T07:14:50.760Z,4
2016-12-26T07:15:31.301Z,8
2016-12-26T07:16:11.836Z,4
2016-12-26T07:16:52.358Z,4
2016-12-26T07:17:32.900Z,8
2016-12-26T07:18:13.435Z,4
2016-12-26T07:18:53.966Z,8
2016-12-26T07:19:34.495Z,8
2016-12-26T07:20:15.058Z,8
2016-12-26T07:20:55.587Z,8
2016-12-26T07:21:36.126Z,8
2016-12-26T07:22:16.650Z,8
2016-12-26T07:22:57.186Z,8
2016-12-26T07:23:37.710Z,8
2016-12-26T07:24:18.242Z,12
2016-12-26T07:24:58.770Z,8
2016-12-26T07:25:39.287Z,12
2016-12-26T07:26:19.821Z,8
2016-12-26T07:27:00.352Z,12
2016-12-26T07:27:40.875Z,12
2016-12-26T07:28:21.409Z,12
2016-12-26T07:29:01.938Z,12
2016-12-26T07:29:42.461Z,12
2016-12-26T07:30:22.998Z,16
2016-12-26T07:31:03.527Z,12
2016-12-26T07:31:44.046Z,12
2016-12-26T07:32:24.574Z,12
2016-12-26T07:33:05.105Z,16
2016-12-26T07:33:45.631Z,16
2016-12-26T07:34:26.159Z,16
2016-12-26T07:35:06.688Z,16
2016-12-26T07:35:47.224Z,20
2016-12-26T07:36:27.748Z,24
2016-12-26T07:37:08.279Z,24
2016-12-26T07:37:48.806Z,28
2016-12-26T07:38:29.335Z,24
2016-12-26T07:39:09.910Z,28
2016-12-26T07:39:50.481Z,28
2016-12-26T07:40:31.057Z,28
2016-12-26T07:41:11.632Z,32
2016-12-26T07:41:52.208Z,32
2016-12-26T07:42:32.791Z,32
2016-12-26T07:43:13.394Z,28
2016-12-26T07:43:53.988Z,24
2016-12-26T07:44:34.558Z,32
2016-12-26T07:45:15.127Z,36
2016-12-26T07:45:55.708Z,28
2016-12-26T07:46:36.282Z,24
2016-12-26T07:47:16.849Z,24
2016-12-26T07:47:57.426Z,28
2016-12-26T07:48:37.984Z,36
2016-12-26T07:49:18.558Z,44
2016-12-26T07:49:59.130Z,48
2016-12-26T07:50:39.711Z,56
2016-12-26T07:51:20.293Z,52
2016-12-26T07:52:00.873Z,60
2016-12-26T07:52:41.451Z,60
2016-12-26T07:53:22.032Z,52
2016-12-26T07:54:02.604Z,60
2016-12-26T07:54:43.188Z,60
2016-12-26T07:55:23.777Z,60
2016-12-26T07:56:04.308Z,56
2016-12-26T07:56:44.872Z,60
2016-12-26T07:57:25.443Z,56
2016-12-26T07:58:06.018Z,56
2016-12-26T07:58:46.593Z,52
2016-12-26T07:59:27.117Z,48
2016-12-26T08:00:07.635Z,60
2016-12-26T08:00:48.156Z,64
2016-12-26T08:01:28.686Z,68
2016-12-26T08:02:09.236Z,64
2016-12-26T08:02:49.814Z,72
2016-12-26T08:03:30.369Z,68
2016-12-26T08:04:10.944Z,68
2016-12-26T08:04:51.547Z,68
2016-12-26T08:05:32.118Z,80
2016-12-26T08:06:12.702Z,80
2016-12-26T08:06:53.282Z,72
2016-12-26T08:07:33.861Z,80
2016-12-26T08:08:14.433Z,80
2016-12-26T08:08:55.005Z,76
2016-12-26T08:09:35.577Z,88
2016-12-26T08:10:16.150Z,100
2016-12-26T08:10:56.726Z,112
2016-12-26T08:11:37.301Z,104
2016-12-26T08:12:17.875Z,92
2016-12-26T08:12:58.452Z,84
2016-12-26T08:13:39.028Z,64
2016-12-26T08:14:19.605Z,44
2016-12-26T08:15:00.185Z,40
2016-12-26T08:15:40.751Z,40
2016-12-26T08:16:21.316Z,68
2016-12-26T08:17:01.899Z,64
2016-12-26T08:17:42.471Z,80
2016-12-26T08:18:23.052Z,100
2016-12-26T08:19:03.624Z,108
2016-12-26T08:19:44.199Z,120
2016-12-26T08:20:24.771Z,156
2016-12-26T08:21:05.353Z,156
2016-12-26T08:21:45.937Z,156
2016-12-26T08:22:26.512Z,164
2016-12-26T08:23:07.044Z,136
2016-12-26T08:23:47.569Z,148
2016-12-26T08:24:28.096Z,144
2016-12-26T08:25:08.628Z,124
2016-12-26T08:25:49.161Z,112
2016-12-26T08:26:29.692Z,112
2016-12-26T08:27:10.219Z,108
2016-12-26T08:27:50.747Z,112
2016-12-26T08:28:31.269Z,112
2016-12-26T08:29:11.790Z,112
2016-12-26T08:29:52.318Z,112
2016-12-26T08:30:32.846Z,96
2016-12-26T08:31:13.375Z,84
2016-12-26T08:31:53.912Z,76
2016-12-26T08:32:34.457Z,84
2016-12-26T08:33:14.987Z,84
2016-12-26T08:33:55.516Z,80
2016-12-26T08:34:36.048Z,96
2016-12-26T08:35:16.574Z,104
2016-12-26T08:35:57.116Z,108
2016-12-26T08:36:37.665Z,124
2016-12-26T08:37:18.193Z,168
2016-12-26T08:37:58.737Z,184
2016-12-26T08:38:39.278Z,200
2016-12-26T08:39:19.823Z,200
2016-12-26T08:40:00.331Z,196
2016-12-26T08:40:40.866Z,204
2016-12-26T08:41:21.449Z,236
2016-12-26T08:42:01.977Z,292
2016-12-26T08:42:42.558Z,352
2016-12-26T08:43:23.105Z,384
2016-12-26T08:44:03.668Z,388
2016-12-26T08:44:44.361Z,416
2016-12-26T08:45:24.938Z,456
2016-12-26T08:46:05.518Z,476
2016-12-26T08:46:46.150Z,500
2016-12-26T08:47:26.721Z,540
2016-12-26T08:48:07.267Z,588
2016-12-26T08:48:47.844Z,640
2016-12-26T08:49:28.429Z,692
2016-12-26T08:50:09.016Z,740
2016-12-26T08:50:49.588Z,788
2016-12-26T08:51:30.161Z,792
2016-12-26T08:52:10.784Z,756
2016-12-26T08:52:51.358Z,732
2016-12-26T08:53:31.949Z,704
2016-12-26T08:54:12.522Z,652
2016-12-26T08:54:53.097Z,604
2016-12-26T08:55:33.678Z,544
2016-12-26T08:56:14.259Z,424
2016-12-26T08:56:54.835Z,368
2016-12-26T08:57:35.410Z,316
2016-12-26T08:58:15.990Z,292
2016-12-26T08:58:56.565Z,300
2016-12-26T08:59:37.144Z,380
2016-12-26T09:00:17.721Z,384
2016-12-26T09:00:58.280Z,340
2016-12-26T09:01:38.859Z,280
2016-12-26T09:02:19.431Z,292
2016-12-26T09:03:00.007Z,344
2016-12-26T09:03:40.580Z,352
2016-12-26T09:04:21.167Z,344
2016-12-26T09:05:01.743Z,340
2016-12-26T09:05:42.319Z,364
2016-12-26T09:06:22.896Z,364
2016-12-26T09:07:03.466Z,424
2016-12-26T09:07:44.067Z,436
2016-12-26T09:08:24.670Z,424
2016-12-26T09:09:05.243Z,420
2016-12-26T09:09:45.821Z,404
2016-12-26T09:10:26.411Z,416
2016-12-26T09:11:07.081Z,428
2016-12-26T09:11:47.653Z,440
2016-12-26T09:12:28.241Z,468
2016-12-26T09:13:08.813Z,512
2016-12-26T09:13:49.387Z,548
2016-12-26T09:14:29.968Z,564
2016-12-26T09:15:10.549Z,560
2016-12-26T09:15:51.128Z,560
2016-12-26T09:16:31.714Z,556
2016-12-26T09:17:12.286Z,532
2016-12-26T09:17:52.866Z,480
2016-12-26T09:18:33.453Z,412
2016-12-26T09:19:14.036Z,344
2016-12-26T09:19:54.605Z,280
2016-12-26T09:20:35.181Z,248
2016-12-26T09:21:15.762Z,228
2016-12-26T09:21:56.287Z,224
2016-12-26T09:22:36.811Z,224
2016-12-26T09:23:17.352Z,228
2016-12-26T09:23:57.872Z,244
2016-12-26T09:24:38.412Z,248
2016-12-26T09:25:18.940Z,252
2016-12-26T09:25:59.474Z,232
2016-12-26T09:26:40.008Z,204
2016-12-26T09:27:20.539Z,188
2016-12-26T09:28:01.063Z,184
2016-12-26T09:28:41.594Z,188
2016-12-26T09:29:22.124Z,200
2016-12-26T09:30:02.648Z,200
2016-12-26T09:30:43.184Z,196
2016-12-26T09:31:23.715Z,200
2016-12-26T09:32:04.243Z,212
2016-12-26T09:32:44.774Z,224
2016-12-26T09:33:25.293Z,244
2016-12-26T09:34:05.812Z,276
2016-12-26T09:34:46.338Z,300
2016-12-26T09:35:26.875Z,296
2016-12-26T09:36:07.404Z,292
2016-12-26T09:36:47.942Z,288
2016-12-26T09:37:28.464Z,280
2016-12-26T09:38:08.998Z,248
2016-12-26T09:38:49.528Z,252
2016-12-26T09:39:30.935Z,104
2016-12-26T09:40:11.514Z,262140
2016-12-26T09:40:52.079Z,262140
2016-12-26T09:41:32.617Z,262140
2016-12-26T09:42:13.143Z,243644
2016-12-26T09:42:53.684Z,243644
2016-12-26T09:44:48.394Z,788
2016-12-26T09:45:28.971Z,764
2016-12-26T09:46:09.547Z,736
2016-12-26T09:46:50.113Z,736
2016-12-26T09:47:30.692Z,736
2016-12-26T09:48:11.299Z,736
2016-12-26T09:48:51.822Z,720
2016-12-26T09:49:32.349Z,688
2016-12-26T09:50:12.880Z,668
2016-12-26T09:50:53.394Z,640
2016-12-26T09:51:33.907Z,612